sensor_id;sensor_type;location;lat;lon;timestamp;temperature;humidity
20648;DHT22;10483;44.646;10.924;2022-08-05T00:02:04;29.50;86.60
20648;DHT22;10483;44.646;10.924;2022-08-05T00:04:32;29.60;87.30
20648;DHT22;10483;44.646;10.924;2022-08-05T00:06:58;29.60;87.90
20648;DHT22;10483;44.646;10.924;2022-08-05T00:09:25;29.70;87.60
20648;DHT22;10483;44.646;10.924;2022-08-05T00:11:52;29.70;87.80
20648;DHT22;10483;44.646;10.924;2022-08-05T00:14:19;29.70;87.30
20648;DHT22;10483;44.646;10.924;2022-08-05T00:16:45;29.70;87.20
20648;DHT22;10483;44.646;10.924;2022-08-05T00:19:12;29.70;87.50
20648;DHT22;10483;44.646;10.924;2022-08-05T00:21:39;29.70;87.50
20648;DHT22;10483;44.646;10.924;2022-08-05T00:24:05;29.70;87.20
20648;DHT22;10483;44.646;10.924;2022-08-05T00:26:32;29.70;87.70
20648;DHT22;10483;44.646;10.924;2022-08-05T00:28:58;29.70;87.40
20648;DHT22;10483;44.646;10.924;2022-08-05T00:31:25;29.70;88.00
20648;DHT22;10483;44.646;10.924;2022-08-05T00:33:52;29.60;87.90
20648;DHT22;10483;44.646;10.924;2022-08-05T00:36:18;29.60;87.90
20648;DHT22;10483;44.646;10.924;2022-08-05T00:38:47;29.60;88.60
20648;DHT22;10483;44.646;10.924;2022-08-05T00:41:13;29.60;88.70
20648;DHT22;10483;44.646;10.924;2022-08-05T00:43:40;29.60;87.50
20648;DHT22;10483;44.646;10.924;2022-08-05T00:46:07;29.60;87.40
20648;DHT22;10483;44.646;10.924;2022-08-05T00:48:33;29.60;87.30
20648;DHT22;10483;44.646;10.924;2022-08-05T00:51:00;29.60;87.40
20648;DHT22;10483;44.646;10.924;2022-08-05T00:53:27;29.50;87.70
20648;DHT22;10483;44.646;10.924;2022-08-05T00:55:53;29.50;87.60
20648;DHT22;10483;44.646;10.924;2022-08-05T00:58:20;29.50;87.50
20648;DHT22;10483;44.646;10.924;2022-08-05T01:00:46;29.50;87.70
20648;DHT22;10483;44.646;10.924;2022-08-05T01:03:13;29.40;87.70
20648;DHT22;10483;44.646;10.924;2022-08-05T01:05:40;29.30;87.60
20648;DHT22;10483;44.646;10.924;2022-08-05T01:08:07;29.30;87.50
20648;DHT22;10483;44.646;10.924;2022-08-05T01:10:39;29.30;87.40
20648;DHT22;10483;44.646;10.924;2022-08-05T01:13:14;29.30;87.40
20648;DHT22;10483;44.646;10.924;2022-08-05T01:15:42;29.20;87.30
20648;DHT22;10483;44.646;10.924;2022-08-05T01:18:12;29.20;87.40
20648;DHT22;10483;44.646;10.924;2022-08-05T01:21:00;29.20;87.20
20648;DHT22;10483;44.646;10.924;2022-08-05T01:26:20;29.10;87.30
20648;DHT22;10483;44.646;10.924;2022-08-05T01:28:53;29.20;87.80
20648;DHT22;10483;44.646;10.924;2022-08-05T01:31:26;29.20;87.40
20648;DHT22;10483;44.646;10.924;2022-08-05T01:33:58;29.20;87.30
20648;DHT22;10483;44.646;10.924;2022-08-05T01:36:27;29.20;87.70
20648;DHT22;10483;44.646;10.924;2022-08-05T01:38:55;29.20;87.50
20648;DHT22;10483;44.646;10.924;2022-08-05T01:41:23;29.20;87.30
20648;DHT22;10483;44.646;10.924;2022-08-05T01:43:51;29.20;87.70
20648;DHT22;10483;44.646;10.924;2022-08-05T01:46:20;29.20;87.60
20648;DHT22;10483;44.646;10.924;2022-08-05T01:48:48;29.30;87.40
20648;DHT22;10483;44.646;10.924;2022-08-05T01:51:17;29.20;86.80
20648;DHT22;10483;44.646;10.924;2022-08-05T01:53:46;29.30;88.10
20648;DHT22;10483;44.646;10.924;2022-08-05T01:56:15;29.30;87.20
20648;DHT22;10483;44.646;10.924;2022-08-05T01:58:43;29.20;87.30
20648;DHT22;10483;44.646;10.924;2022-08-05T02:01:12;29.20;87.10
20648;DHT22;10483;44.646;10.924;2022-08-05T02:03:42;29.20;87.60
20648;DHT22;10483;44.646;10.924;2022-08-05T02:06:11;29.20;87.70
20648;DHT22;10483;44.646;10.924;2022-08-05T02:08:38;29.20;87.60
20648;DHT22;10483;44.646;10.924;2022-08-05T02:11:09;29.20;87.30
20648;DHT22;10483;44.646;10.924;2022-08-05T02:13:53;29.20;87.80
20648;DHT22;10483;44.646;10.924;2022-08-05T02:16:24;29.20;87.20
20648;DHT22;10483;44.646;10.924;2022-08-05T02:18:55;29.10;88.90
20648;DHT22;10483;44.646;10.924;2022-08-05T02:21:28;29.10;87.40
20648;DHT22;10483;44.646;10.924;2022-08-05T02:23:58;29.10;87.50
20648;DHT22;10483;44.646;10.924;2022-08-05T02:26:34;29.10;87.20
20648;DHT22;10483;44.646;10.924;2022-08-05T02:28:59;29.10;87.30
20648;DHT22;10483;44.646;10.924;2022-08-05T02:31:29;29.00;87.40
20648;DHT22;10483;44.646;10.924;2022-08-05T02:34:01;29.00;87.80
20648;DHT22;10483;44.646;10.924;2022-08-05T02:36:29;29.00;88.10
20648;DHT22;10483;44.646;10.924;2022-08-05T02:38:57;29.00;88.60
20648;DHT22;10483;44.646;10.924;2022-08-05T02:41:26;28.90;88.20
20648;DHT22;10483;44.646;10.924;2022-08-05T02:43:54;28.90;88.40
20648;DHT22;10483;44.646;10.924;2022-08-05T02:46:22;28.90;88.40
20648;DHT22;10483;44.646;10.924;2022-08-05T02:48:51;28.90;88.90
20648;DHT22;10483;44.646;10.924;2022-08-05T02:51:19;28.90;88.40
20648;DHT22;10483;44.646;10.924;2022-08-05T02:53:48;28.80;88.70
20648;DHT22;10483;44.646;10.924;2022-08-05T02:56:16;28.80;89.30
20648;DHT22;10483;44.646;10.924;2022-08-05T02:58:43;28.80;89.00
20648;DHT22;10483;44.646;10.924;2022-08-05T03:01:13;28.80;89.20
20648;DHT22;10483;44.646;10.924;2022-08-05T03:03:41;28.80;89.60
20648;DHT22;10483;44.646;10.924;2022-08-05T03:06:10;28.80;89.80
20648;DHT22;10483;44.646;10.924;2022-08-05T03:08:38;28.80;90.10
20648;DHT22;10483;44.646;10.924;2022-08-05T03:13:40;28.80;89.60
20648;DHT22;10483;44.646;10.924;2022-08-05T03:16:06;28.70;89.80
20648;DHT22;10483;44.646;10.924;2022-08-05T03:18:33;28.70;90.00
20648;DHT22;10483;44.646;10.924;2022-08-05T03:21:00;28.70;90.00
20648;DHT22;10483;44.646;10.924;2022-08-05T03:23:27;28.70;90.00
20648;DHT22;10483;44.646;10.924;2022-08-05T03:25:54;28.70;89.80
20648;DHT22;10483;44.646;10.924;2022-08-05T03:28:21;28.70;89.30
20648;DHT22;10483;44.646;10.924;2022-08-05T03:30:49;28.70;89.90
20648;DHT22;10483;44.646;10.924;2022-08-05T03:33:16;28.70;89.40
20648;DHT22;10483;44.646;10.924;2022-08-05T03:35:45;28.70;89.20
20648;DHT22;10483;44.646;10.924;2022-08-05T03:38:12;28.60;89.20
20648;DHT22;10483;44.646;10.924;2022-08-05T03:40:40;28.60;89.50
20648;DHT22;10483;44.646;10.924;2022-08-05T03:43:07;28.60;89.50
20648;DHT22;10483;44.646;10.924;2022-08-05T03:45:34;28.60;90.00
20648;DHT22;10483;44.646;10.924;2022-08-05T03:48:01;28.50;90.20
20648;DHT22;10483;44.646;10.924;2022-08-05T03:50:34;28.50;90.10
20648;DHT22;10483;44.646;10.924;2022-08-05T03:53:06;28.50;90.30
20648;DHT22;10483;44.646;10.924;2022-08-05T03:55:36;28.50;90.00
20648;DHT22;10483;44.646;10.924;2022-08-05T03:58:04;28.50;89.90
20648;DHT22;10483;44.646;10.924;2022-08-05T04:00:32;28.40;89.80
20648;DHT22;10483;44.646;10.924;2022-08-05T04:03:01;28.40;90.10
20648;DHT22;10483;44.646;10.924;2022-08-05T04:05:31;28.40;90.20
20648;DHT22;10483;44.646;10.924;2022-08-05T04:08:01;28.30;90.90
20648;DHT22;10483;44.646;10.924;2022-08-05T04:10:28;28.30;90.90
20648;DHT22;10483;44.646;10.924;2022-08-05T04:12:56;28.30;90.80
20648;DHT22;10483;44.646;10.924;2022-08-05T04:15:22;28.30;90.90
20648;DHT22;10483;44.646;10.924;2022-08-05T04:17:49;28.20;90.80
20648;DHT22;10483;44.646;10.924;2022-08-05T04:20:18;28.20;91.10
20648;DHT22;10483;44.646;10.924;2022-08-05T04:22:45;28.20;91.20
20648;DHT22;10483;44.646;10.924;2022-08-05T04:25:12;28.20;90.90
20648;DHT22;10483;44.646;10.924;2022-08-05T04:27:39;28.20;90.90
20648;DHT22;10483;44.646;10.924;2022-08-05T04:30:07;28.20;91.40
20648;DHT22;10483;44.646;10.924;2022-08-05T04:32:34;28.20;91.20
20648;DHT22;10483;44.646;10.924;2022-08-05T04:35:01;28.20;91.70
20648;DHT22;10483;44.646;10.924;2022-08-05T04:37:27;28.20;91.30
20648;DHT22;10483;44.646;10.924;2022-08-05T04:39:55;28.20;91.70
20648;DHT22;10483;44.646;10.924;2022-08-05T04:42:21;28.20;91.70
20648;DHT22;10483;44.646;10.924;2022-08-05T04:44:48;28.20;91.70
20648;DHT22;10483;44.646;10.924;2022-08-05T04:47:15;28.20;91.80
20648;DHT22;10483;44.646;10.924;2022-08-05T04:49:41;28.20;91.90
20648;DHT22;10483;44.646;10.924;2022-08-05T04:52:08;28.20;92.10
20648;DHT22;10483;44.646;10.924;2022-08-05T04:54:35;28.20;92.00
20648;DHT22;10483;44.646;10.924;2022-08-05T04:57:01;28.20;92.00
20648;DHT22;10483;44.646;10.924;2022-08-05T04:59:28;28.20;91.90
20648;DHT22;10483;44.646;10.924;2022-08-05T05:01:54;28.20;91.70
20648;DHT22;10483;44.646;10.924;2022-08-05T05:04:23;28.20;91.30
20648;DHT22;10483;44.646;10.924;2022-08-05T05:06:50;28.20;91.50
20648;DHT22;10483;44.646;10.924;2022-08-05T05:09:16;28.10;91.20
20648;DHT22;10483;44.646;10.924;2022-08-05T05:11:43;28.10;91.30
20648;DHT22;10483;44.646;10.924;2022-08-05T05:14:10;28.20;91.20
20648;DHT22;10483;44.646;10.924;2022-08-05T05:16:36;28.20;91.20
20648;DHT22;10483;44.646;10.924;2022-08-05T05:19:03;28.20;91.30
20648;DHT22;10483;44.646;10.924;2022-08-05T05:21:30;28.10;91.30
20648;DHT22;10483;44.646;10.924;2022-08-05T05:23:56;28.20;91.30
20648;DHT22;10483;44.646;10.924;2022-08-05T05:26:23;28.10;91.20
20648;DHT22;10483;44.646;10.924;2022-08-05T05:28:49;28.20;91.20
20648;DHT22;10483;44.646;10.924;2022-08-05T05:31:16;28.10;91.30
20648;DHT22;10483;44.646;10.924;2022-08-05T05:33:43;28.10;91.30
20648;DHT22;10483;44.646;10.924;2022-08-05T05:36:09;28.20;91.30
20648;DHT22;10483;44.646;10.924;2022-08-05T05:38:36;28.10;91.30
20648;DHT22;10483;44.646;10.924;2022-08-05T05:41:03;28.10;91.30
20648;DHT22;10483;44.646;10.924;2022-08-05T05:43:29;28.10;91.50
20648;DHT22;10483;44.646;10.924;2022-08-05T05:45:56;28.20;91.30
20648;DHT22;10483;44.646;10.924;2022-08-05T05:48:22;28.10;91.50
20648;DHT22;10483;44.646;10.924;2022-08-05T05:50:50;28.20;91.20
20648;DHT22;10483;44.646;10.924;2022-08-05T05:53:17;28.20;91.20
20648;DHT22;10483;44.646;10.924;2022-08-05T05:55:44;28.20;91.20
20648;DHT22;10483;44.646;10.924;2022-08-05T05:58:12;28.20;91.10
20648;DHT22;10483;44.646;10.924;2022-08-05T06:00:38;28.20;91.10
20648;DHT22;10483;44.646;10.924;2022-08-05T06:03:05;28.30;91.10
20648;DHT22;10483;44.646;10.924;2022-08-05T06:05:31;28.30;91.00
20648;DHT22;10483;44.646;10.924;2022-08-05T06:07:58;28.30;91.00
20648;DHT22;10483;44.646;10.924;2022-08-05T06:10:25;28.30;91.10
20648;DHT22;10483;44.646;10.924;2022-08-05T06:12:51;28.30;91.10
20648;DHT22;10483;44.646;10.924;2022-08-05T06:15:18;28.30;91.20
20648;DHT22;10483;44.646;10.924;2022-08-05T06:17:44;28.40;91.40
20648;DHT22;10483;44.646;10.924;2022-08-05T06:20:11;28.40;91.40
20648;DHT22;10483;44.646;10.924;2022-08-05T06:22:38;28.40;91.40
20648;DHT22;10483;44.646;10.924;2022-08-05T06:25:05;28.40;91.80
20648;DHT22;10483;44.646;10.924;2022-08-05T06:27:34;28.40;91.50
20648;DHT22;10483;44.646;10.924;2022-08-05T06:30:01;28.40;91.50
20648;DHT22;10483;44.646;10.924;2022-08-05T06:32:28;28.50;91.60
20648;DHT22;10483;44.646;10.924;2022-08-05T06:34:56;28.50;91.70
20648;DHT22;10483;44.646;10.924;2022-08-05T06:37:25;28.60;91.70
20648;DHT22;10483;44.646;10.924;2022-08-05T06:39:51;28.60;91.90
20648;DHT22;10483;44.646;10.924;2022-08-05T06:42:18;28.60;91.70
20648;DHT22;10483;44.646;10.924;2022-08-05T06:44:45;28.70;92.00
20648;DHT22;10483;44.646;10.924;2022-08-05T06:47:12;28.70;92.10
20648;DHT22;10483;44.646;10.924;2022-08-05T06:49:38;28.70;92.00
20648;DHT22;10483;44.646;10.924;2022-08-05T06:52:05;28.80;92.90
20648;DHT22;10483;44.646;10.924;2022-08-05T06:54:32;28.80;92.20
20648;DHT22;10483;44.646;10.924;2022-08-05T06:56:58;28.80;92.00
20648;DHT22;10483;44.646;10.924;2022-08-05T06:59:25;28.80;92.30
20648;DHT22;10483;44.646;10.924;2022-08-05T07:01:52;28.90;92.50
20648;DHT22;10483;44.646;10.924;2022-08-05T07:04:18;28.90;92.10
20648;DHT22;10483;44.646;10.924;2022-08-05T07:06:45;29.00;91.80
20648;DHT22;10483;44.646;10.924;2022-08-05T07:09:11;29.00;91.40
20648;DHT22;10483;44.646;10.924;2022-08-05T07:11:38;29.00;91.10
20648;DHT22;10483;44.646;10.924;2022-08-05T07:14:05;29.00;91.10
20648;DHT22;10483;44.646;10.924;2022-08-05T07:16:37;29.10;91.00
20648;DHT22;10483;44.646;10.924;2022-08-05T07:19:10;29.10;90.70
20648;DHT22;10483;44.646;10.924;2022-08-05T07:21:36;29.10;90.60
20648;DHT22;10483;44.646;10.924;2022-08-05T07:24:03;29.20;90.90
20648;DHT22;10483;44.646;10.924;2022-08-05T07:26:30;29.20;91.00
20648;DHT22;10483;44.646;10.924;2022-08-05T07:28:57;29.20;90.80
20648;DHT22;10483;44.646;10.924;2022-08-05T07:31:23;29.30;90.60
20648;DHT22;10483;44.646;10.924;2022-08-05T07:33:50;29.30;90.70
20648;DHT22;10483;44.646;10.924;2022-08-05T07:36:17;29.30;91.10
20648;DHT22;10483;44.646;10.924;2022-08-05T07:38:43;29.40;92.20
20648;DHT22;10483;44.646;10.924;2022-08-05T07:41:14;29.50;91.40
20648;DHT22;10483;44.646;10.924;2022-08-05T07:43:41;29.50;90.90
20648;DHT22;10483;44.646;10.924;2022-08-05T07:46:07;29.50;90.30
20648;DHT22;10483;44.646;10.924;2022-08-05T07:48:34;29.60;90.10
20648;DHT22;10483;44.646;10.924;2022-08-05T07:51:01;29.60;90.00
20648;DHT22;10483;44.646;10.924;2022-08-05T07:53:27;29.70;90.00
20648;DHT22;10483;44.646;10.924;2022-08-05T07:55:54;29.70;89.90
20648;DHT22;10483;44.646;10.924;2022-08-05T07:58:21;29.70;90.40
20648;DHT22;10483;44.646;10.924;2022-08-05T08:00:47;29.80;90.00
20648;DHT22;10483;44.646;10.924;2022-08-05T08:03:15;29.80;89.50
20648;DHT22;10483;44.646;10.924;2022-08-05T08:05:42;29.90;89.70
20648;DHT22;10483;44.646;10.924;2022-08-05T08:08:10;30.00;89.90
20648;DHT22;10483;44.646;10.924;2022-08-05T08:10:37;30.00;90.10
20648;DHT22;10483;44.646;10.924;2022-08-05T08:13:04;30.10;90.10
20648;DHT22;10483;44.646;10.924;2022-08-05T08:15:31;30.20;90.70
20648;DHT22;10483;44.646;10.924;2022-08-05T08:17:58;30.30;89.90
20648;DHT22;10483;44.646;10.924;2022-08-05T08:20:25;30.30;90.00
20648;DHT22;10483;44.646;10.924;2022-08-05T08:22:54;30.40;89.50
20648;DHT22;10483;44.646;10.924;2022-08-05T08:25:21;30.50;89.30
20648;DHT22;10483;44.646;10.924;2022-08-05T08:27:48;30.50;90.20
20648;DHT22;10483;44.646;10.924;2022-08-05T08:30:15;30.60;90.40
20648;DHT22;10483;44.646;10.924;2022-08-05T08:32:42;30.70;90.20
20648;DHT22;10483;44.646;10.924;2022-08-05T08:35:09;30.70;89.20
20648;DHT22;10483;44.646;10.924;2022-08-05T08:37:35;30.80;89.30
20648;DHT22;10483;44.646;10.924;2022-08-05T08:40:02;30.80;91.10
20648;DHT22;10483;44.646;10.924;2022-08-05T08:42:30;30.80;92.20
20648;DHT22;10483;44.646;10.924;2022-08-05T08:44:58;30.80;92.40
20648;DHT22;10483;44.646;10.924;2022-08-05T08:47:26;30.80;92.40
20648;DHT22;10483;44.646;10.924;2022-08-05T08:49:55;30.80;91.90
20648;DHT22;10483;44.646;10.924;2022-08-05T08:52:27;30.90;92.80
20648;DHT22;10483;44.646;10.924;2022-08-05T08:54:53;31.00;91.60
20648;DHT22;10483;44.646;10.924;2022-08-05T08:57:20;31.00;92.00
20648;DHT22;10483;44.646;10.924;2022-08-05T08:59:48;31.10;91.00
20648;DHT22;10483;44.646;10.924;2022-08-05T09:02:17;31.00;92.40
20648;DHT22;10483;44.646;10.924;2022-08-05T09:04:45;31.00;92.60
20648;DHT22;10483;44.646;10.924;2022-08-05T09:07:12;31.10;92.20
20648;DHT22;10483;44.646;10.924;2022-08-05T09:09:39;31.00;92.60
20648;DHT22;10483;44.646;10.924;2022-08-05T09:12:07;31.00;92.50
20648;DHT22;10483;44.646;10.924;2022-08-05T09:14:35;31.10;92.00
20648;DHT22;10483;44.646;10.924;2022-08-05T09:17:04;31.10;92.60
20648;DHT22;10483;44.646;10.924;2022-08-05T09:19:31;31.20;92.50
20648;DHT22;10483;44.646;10.924;2022-08-05T09:21:58;31.30;90.30
20648;DHT22;10483;44.646;10.924;2022-08-05T09:24:25;31.60;90.00
20648;DHT22;10483;44.646;10.924;2022-08-05T09:26:55;31.70;88.40
20648;DHT22;10483;44.646;10.924;2022-08-05T09:32:01;31.60;91.00
20648;DHT22;10483;44.646;10.924;2022-08-05T09:37:19;31.60;91.60
20648;DHT22;10483;44.646;10.924;2022-08-05T09:39:46;31.80;90.40
20648;DHT22;10483;44.646;10.924;2022-08-05T09:42:14;32.10;89.40
20648;DHT22;10483;44.646;10.924;2022-08-05T09:44:43;32.20;89.40
20648;DHT22;10483;44.646;10.924;2022-08-05T09:47:15;32.40;88.00
20648;DHT22;10483;44.646;10.924;2022-08-05T09:49:47;32.50;89.80
20648;DHT22;10483;44.646;10.924;2022-08-05T09:55:11;32.70;88.20
20648;DHT22;10483;44.646;10.924;2022-08-05T09:57:43;32.80;88.50
20648;DHT22;10483;44.646;10.924;2022-08-05T10:00:17;32.80;89.30
20648;DHT22;10483;44.646;10.924;2022-08-05T10:02:47;33.20;86.80
20648;DHT22;10483;44.646;10.924;2022-08-05T10:05:17;33.50;84.20
20648;DHT22;10483;44.646;10.924;2022-08-05T10:07:49;33.50;87.20
20648;DHT22;10483;44.646;10.924;2022-08-05T10:10:18;33.60;87.60
20648;DHT22;10483;44.646;10.924;2022-08-05T10:12:48;34.00;85.30
20648;DHT22;10483;44.646;10.924;2022-08-05T10:15:20;33.90;86.30
20648;DHT22;10483;44.646;10.924;2022-08-05T10:20:26;35.10;79.60
20648;DHT22;10483;44.646;10.924;2022-08-05T10:22:53;35.90;75.80
20648;DHT22;10483;44.646;10.924;2022-08-05T10:25:21;36.20;76.40
20648;DHT22;10483;44.646;10.924;2022-08-05T10:27:48;36.70;79.90
20648;DHT22;10483;44.646;10.924;2022-08-05T10:30:17;36.70;80.10
20648;DHT22;10483;44.646;10.924;2022-08-05T10:32:45;38.00;72.90
20648;DHT22;10483;44.646;10.924;2022-08-05T10:35:13;38.80;69.60
20648;DHT22;10483;44.646;10.924;2022-08-05T10:37:40;39.20;68.70
20648;DHT22;10483;44.646;10.924;2022-08-05T10:40:17;39.30;67.00
20648;DHT22;10483;44.646;10.924;2022-08-05T10:42:46;39.20;67.10
20648;DHT22;10483;44.646;10.924;2022-08-05T10:45:14;39.00;65.60
20648;DHT22;10483;44.646;10.924;2022-08-05T10:47:41;38.80;67.80
20648;DHT22;10483;44.646;10.924;2022-08-05T10:50:10;38.60;67.20
20648;DHT22;10483;44.646;10.924;2022-08-05T10:52:42;38.00;74.10
20648;DHT22;10483;44.646;10.924;2022-08-05T10:55:12;37.70;70.60
20648;DHT22;10483;44.646;10.924;2022-08-05T10:57:39;38.30;69.20
20648;DHT22;10483;44.646;10.924;2022-08-05T11:00:18;38.30;67.70
20648;DHT22;10483;44.646;10.924;2022-08-05T11:03:08;38.20;67.00
20648;DHT22;10483;44.646;10.924;2022-08-05T11:05:36;38.00;69.90
20648;DHT22;10483;44.646;10.924;2022-08-05T11:08:07;37.60;69.60
20648;DHT22;10483;44.646;10.924;2022-08-05T11:10:35;37.10;74.10
20648;DHT22;10483;44.646;10.924;2022-08-05T11:13:03;36.70;72.10
20648;DHT22;10483;44.646;10.924;2022-08-05T11:15:35;36.50;74.70
20648;DHT22;10483;44.646;10.924;2022-08-05T11:18:29;36.20;75.20
20648;DHT22;10483;44.646;10.924;2022-08-05T11:20:58;36.10;72.00
20648;DHT22;10483;44.646;10.924;2022-08-05T11:23:31;35.80;72.40
20648;DHT22;10483;44.646;10.924;2022-08-05T11:26:10;35.50;75.00
20648;DHT22;10483;44.646;10.924;2022-08-05T11:28:45;35.30;74.10
20648;DHT22;10483;44.646;10.924;2022-08-05T11:31:21;35.40;70.20
20648;DHT22;10483;44.646;10.924;2022-08-05T11:33:54;35.30;72.40
20648;DHT22;10483;44.646;10.924;2022-08-05T11:36:44;35.30;72.80
20648;DHT22;10483;44.646;10.924;2022-08-05T11:39:16;35.10;73.60
20648;DHT22;10483;44.646;10.924;2022-08-05T11:41:51;35.00;75.80
20648;DHT22;10483;44.646;10.924;2022-08-05T11:44:19;35.00;74.30
20648;DHT22;10483;44.646;10.924;2022-08-05T11:46:49;35.00;72.00
20648;DHT22;10483;44.646;10.924;2022-08-05T11:49:18;34.80;77.00
20648;DHT22;10483;44.646;10.924;2022-08-05T11:51:46;34.70;74.80
20648;DHT22;10483;44.646;10.924;2022-08-05T11:54:30;34.70;73.60
20648;DHT22;10483;44.646;10.924;2022-08-05T11:57:01;34.70;72.10
20648;DHT22;10483;44.646;10.924;2022-08-05T11:59:29;34.70;71.90
20648;DHT22;10483;44.646;10.924;2022-08-05T12:02:01;34.50;76.50
20648;DHT22;10483;44.646;10.924;2022-08-05T12:04:38;34.50;77.30
20648;DHT22;10483;44.646;10.924;2022-08-05T12:07:07;34.30;78.90
20648;DHT22;10483;44.646;10.924;2022-08-05T12:09:40;34.30;76.20
20648;DHT22;10483;44.646;10.924;2022-08-05T12:12:07;34.10;79.40
20648;DHT22;10483;44.646;10.924;2022-08-05T12:14:36;34.10;79.10
20648;DHT22;10483;44.646;10.924;2022-08-05T12:17:08;34.10;79.30
20648;DHT22;10483;44.646;10.924;2022-08-05T12:19:42;34.10;79.10
20648;DHT22;10483;44.646;10.924;2022-08-05T12:22:09;34.10;77.00
20648;DHT22;10483;44.646;10.924;2022-08-05T12:24:41;34.30;75.00
20648;DHT22;10483;44.646;10.924;2022-08-05T12:27:08;34.20;77.10
20648;DHT22;10483;44.646;10.924;2022-08-05T12:29:35;34.20;77.80
20648;DHT22;10483;44.646;10.924;2022-08-05T12:32:04;34.20;74.10
20648;DHT22;10483;44.646;10.924;2022-08-05T12:34:33;34.10;79.70
20648;DHT22;10483;44.646;10.924;2022-08-05T12:37:06;34.10;78.40
20648;DHT22;10483;44.646;10.924;2022-08-05T12:39:37;34.10;76.80
20648;DHT22;10483;44.646;10.924;2022-08-05T12:42:11;34.00;76.00
20648;DHT22;10483;44.646;10.924;2022-08-05T12:44:38;34.10;76.90
20648;DHT22;10483;44.646;10.924;2022-08-05T12:47:05;34.00;78.20
20648;DHT22;10483;44.646;10.924;2022-08-05T12:49:43;34.00;76.80
20648;DHT22;10483;44.646;10.924;2022-08-05T12:52:13;34.00;78.10
20648;DHT22;10483;44.646;10.924;2022-08-05T12:54:40;33.90;80.10
20648;DHT22;10483;44.646;10.924;2022-08-05T12:57:09;33.70;81.50
20648;DHT22;10483;44.646;10.924;2022-08-05T12:59:43;33.60;82.00
20648;DHT22;10483;44.646;10.924;2022-08-05T13:02:11;33.60;80.70
20648;DHT22;10483;44.646;10.924;2022-08-05T13:04:42;33.70;82.10
20648;DHT22;10483;44.646;10.924;2022-08-05T13:07:12;33.70;79.40
20648;DHT22;10483;44.646;10.924;2022-08-05T13:09:41;33.80;75.90
20648;DHT22;10483;44.646;10.924;2022-08-05T13:12:12;33.90;79.40
20648;DHT22;10483;44.646;10.924;2022-08-05T13:14:45;33.90;78.80
20648;DHT22;10483;44.646;10.924;2022-08-05T13:17:21;33.80;80.40
20648;DHT22;10483;44.646;10.924;2022-08-05T13:22:27;33.80;79.90
20648;DHT22;10483;44.646;10.924;2022-08-05T13:24:54;34.00;75.10
20648;DHT22;10483;44.646;10.924;2022-08-05T13:27:25;34.20;77.60
20648;DHT22;10483;44.646;10.924;2022-08-05T13:29:52;34.10;76.20
20648;DHT22;10483;44.646;10.924;2022-08-05T13:32:19;34.10;79.30
20648;DHT22;10483;44.646;10.924;2022-08-05T13:34:47;34.00;76.90
20648;DHT22;10483;44.646;10.924;2022-08-05T13:37:14;34.00;77.50
20648;DHT22;10483;44.646;10.924;2022-08-05T13:39:41;33.80;79.00
20648;DHT22;10483;44.646;10.924;2022-08-05T13:42:08;33.80;78.80
20648;DHT22;10483;44.646;10.924;2022-08-05T13:44:35;33.80;81.90
20648;DHT22;10483;44.646;10.924;2022-08-05T13:47:02;33.60;81.50
20648;DHT22;10483;44.646;10.924;2022-08-05T13:49:28;33.60;81.40
20648;DHT22;10483;44.646;10.924;2022-08-05T13:51:55;33.60;81.10
20648;DHT22;10483;44.646;10.924;2022-08-05T13:54:22;33.50;83.00
20648;DHT22;10483;44.646;10.924;2022-08-05T13:56:51;33.40;80.70
20648;DHT22;10483;44.646;10.924;2022-08-05T13:59:20;33.50;82.20
20648;DHT22;10483;44.646;10.924;2022-08-05T14:01:47;33.40;80.50
20648;DHT22;10483;44.646;10.924;2022-08-05T14:04:14;33.40;81.40
20648;DHT22;10483;44.646;10.924;2022-08-05T14:06:46;33.50;81.80
20648;DHT22;10483;44.646;10.924;2022-08-05T14:09:13;33.50;80.40
20648;DHT22;10483;44.646;10.924;2022-08-05T14:11:40;33.60;79.70
20648;DHT22;10483;44.646;10.924;2022-08-05T14:14:07;33.70;78.80
20648;DHT22;10483;44.646;10.924;2022-08-05T14:16:34;33.70;76.40
20648;DHT22;10483;44.646;10.924;2022-08-05T14:19:00;33.80;80.30
20648;DHT22;10483;44.646;10.924;2022-08-05T14:21:27;33.70;77.50
20648;DHT22;10483;44.646;10.924;2022-08-05T14:23:54;33.60;79.60
20648;DHT22;10483;44.646;10.924;2022-08-05T14:26:20;33.70;79.30
20648;DHT22;10483;44.646;10.924;2022-08-05T14:28:47;33.80;80.40
20648;DHT22;10483;44.646;10.924;2022-08-05T14:31:14;33.90;78.70
20648;DHT22;10483;44.646;10.924;2022-08-05T14:33:41;33.90;77.90
20648;DHT22;10483;44.646;10.924;2022-08-05T14:36:07;33.80;79.10
20648;DHT22;10483;44.646;10.924;2022-08-05T14:38:34;33.90;78.90
20648;DHT22;10483;44.646;10.924;2022-08-05T14:41:02;33.80;78.40
20648;DHT22;10483;44.646;10.924;2022-08-05T14:43:30;33.80;77.60
20648;DHT22;10483;44.646;10.924;2022-08-05T14:45:56;33.80;78.80
20648;DHT22;10483;44.646;10.924;2022-08-05T14:48:23;33.80;77.70
20648;DHT22;10483;44.646;10.924;2022-08-05T14:50:50;33.80;76.80
20648;DHT22;10483;44.646;10.924;2022-08-05T14:53:16;33.80;76.40
20648;DHT22;10483;44.646;10.924;2022-08-05T14:55:43;33.90;80.30
20648;DHT22;10483;44.646;10.924;2022-08-05T14:58:10;33.90;78.90
20648;DHT22;10483;44.646;10.924;2022-08-05T15:00:36;33.90;76.80
20648;DHT22;10483;44.646;10.924;2022-08-05T15:03:04;33.80;78.80
20648;DHT22;10483;44.646;10.924;2022-08-05T15:05:33;33.70;79.60
20648;DHT22;10483;44.646;10.924;2022-08-05T15:08:01;33.60;81.80
20648;DHT22;10483;44.646;10.924;2022-08-05T15:10:28;33.60;80.00
20648;DHT22;10483;44.646;10.924;2022-08-05T15:12:55;33.50;81.90
20648;DHT22;10483;44.646;10.924;2022-08-05T15:15:22;33.40;80.60
20648;DHT22;10483;44.646;10.924;2022-08-05T15:17:49;33.40;81.40
20648;DHT22;10483;44.646;10.924;2022-08-05T15:20:15;33.40;78.80
20648;DHT22;10483;44.646;10.924;2022-08-05T15:22:42;33.60;80.70
20648;DHT22;10483;44.646;10.924;2022-08-05T15:25:09;33.60;78.20
20648;DHT22;10483;44.646;10.924;2022-08-05T15:27:35;33.60;76.50
20648;DHT22;10483;44.646;10.924;2022-08-05T15:30:03;33.60;80.00
20648;DHT22;10483;44.646;10.924;2022-08-05T15:32:30;33.50;77.50
20648;DHT22;10483;44.646;10.924;2022-08-05T15:34:56;33.60;76.90
20648;DHT22;10483;44.646;10.924;2022-08-05T15:37:24;33.60;77.10
20648;DHT22;10483;44.646;10.924;2022-08-05T15:39:51;33.60;81.10
20648;DHT22;10483;44.646;10.924;2022-08-05T15:42:17;33.50;79.40